createdAt,value
2023-04-10T00:03:49.047Z,2.95
2023-04-10T00:13:42.571Z,2.74
2023-04-10T00:18:55.520Z,2.56
2023-04-10T00:24:02.210Z,2.54
2023-04-10T00:29:07.932Z,2.57
2023-04-10T00:34:14.975Z,2.46
2023-04-10T00:39:29.648Z,2.55
2023-04-10T00:44:40.448Z,2.45
2023-04-10T00:49:56.494Z,2.49
2023-04-10T00:55:17.104Z,2.67
2023-04-10T01:00:26.986Z,2.55
2023-04-10T01:05:31.870Z,2.43
2023-04-10T01:11:08.399Z,2.43
2023-04-10T01:16:30.527Z,2.48
2023-04-10T01:21:43.464Z,2.45
2023-04-10T01:26:47.453Z,2.51
2023-04-10T01:32:02.180Z,2.46
2023-04-10T01:37:06.306Z,2.39
2023-04-10T01:41:34.822Z,2.37
2023-04-10T01:46:40.861Z,2.43
2023-04-10T01:51:58.559Z,2.44
2023-04-10T01:57:08.221Z,2.55
2023-04-10T02:02:12.329Z,2.46
2023-04-10T02:07:23.528Z,2.47
2023-04-10T02:12:46.506Z,2.36
2023-04-10T02:17:53.434Z,2.27
2023-04-10T02:22:59.389Z,2.14
2023-04-10T02:28:12.476Z,2.15
2023-04-10T02:33:19.483Z,2.34
2023-04-10T02:38:29.134Z,2.42
2023-04-10T02:43:50.544Z,2.43
2023-04-10T02:48:52.949Z,2.59
2023-04-10T02:53:56.800Z,2.69
2023-04-10T02:58:40.712Z,2.82
2023-04-10T03:03:50.829Z,2.92
2023-04-10T03:08:55.546Z,2.95
2023-04-10T03:14:09.381Z,2.95
2023-04-10T03:19:26.692Z,2.95
2023-04-10T03:24:32.700Z,2.96
2023-04-10T03:29:51.394Z,2.94
2023-04-10T03:35:06.269Z,2.82
2023-04-10T03:39:43.099Z,2.54
2023-04-10T03:44:54.346Z,2.39
2023-04-10T03:49:38.041Z,2.33
2023-04-10T03:55:02.295Z,2.38
2023-04-10T04:04:44.564Z,2.49
2023-04-10T04:10:10.567Z,2.30
2023-04-10T04:15:27.328Z,2.21
2023-04-10T04:20:29.866Z,2.15
2023-04-10T04:25:34.888Z,2.14
2023-04-10T04:30:44.416Z,2.24
2023-04-10T04:36:00.779Z,2.33
2023-04-10T04:41:27.227Z,2.32
2023-04-10T04:46:41.096Z,2.46
2023-04-10T04:52:01.256Z,2.67
2023-04-10T04:57:17.980Z,2.94
2023-04-10T05:02:42.038Z,3.20
2023-04-10T05:08:04.441Z,3.55
2023-04-10T05:13:07.007Z,3.87
2023-04-10T05:18:33.773Z,4.04
2023-04-10T05:23:33.861Z,4.15
2023-04-10T05:28:52.066Z,4.27
2023-04-10T05:33:59.628Z,4.27
2023-04-10T05:39:09.932Z,4.22
2023-04-10T05:44:25.797Z,4.26
2023-04-10T05:49:16.827Z,4.50
2023-04-10T05:54:05.047Z,4.75
2023-04-10T05:59:20.363Z,5.01
2023-04-10T06:04:30.629Z,5.23
2023-04-10T06:09:47.894Z,5.49
2023-04-10T06:14:33.763Z,5.74
2023-04-10T06:19:04.572Z,5.94
2023-04-10T06:24:22.578Z,6.20
2023-04-10T06:28:46.105Z,6.47
2023-04-10T06:33:19.140Z,6.51
2023-04-10T06:37:50.906Z,6.40
2023-04-10T06:43:01.911Z,6.63
2023-04-10T06:47:34.531Z,6.99
2023-04-10T06:52:03.893Z,6.91
2023-04-10T06:56:50.904Z,6.82
2023-04-10T07:00:56.750Z,6.66
2023-04-10T07:05:31.105Z,6.75
2023-04-10T07:10:08.031Z,6.84
2023-04-10T07:14:31.108Z,6.91
2023-04-10T07:19:17.816Z,6.99
2023-04-10T07:23:42.172Z,7.07
2023-04-10T07:28:24.182Z,7.12
2023-04-10T07:32:49.282Z,7.06
2023-04-10T07:37:13.054Z,7.01
2023-04-10T07:41:47.090Z,6.99
2023-04-10T07:46:20.222Z,7.06
2023-04-10T07:50:44.344Z,7.28
2023-04-10T07:55:51.288Z,7.57
2023-04-10T08:00:16.158Z,7.69
2023-04-10T08:04:42.294Z,7.62
2023-04-10T08:09:06.336Z,7.46
2023-04-10T08:14:34.864Z,7.27
2023-04-10T08:20:14.933Z,7.07
2023-04-10T08:25:15.581Z,6.99
2023-04-10T08:29:35.908Z,7.11
2023-04-10T08:39:44.268Z,7.55
2023-04-10T08:44:35.748Z,7.77
2023-04-10T08:59:48.810Z,8.44
2023-04-10T09:04:35.279Z,8.57
2023-04-10T09:09:49.754Z,8.74
2023-04-10T09:15:00.750Z,8.84
2023-04-10T09:20:38.984Z,8.99
2023-04-10T09:25:51.383Z,9.19
2023-04-10T09:30:55.958Z,9.48
2023-04-10T09:36:18.069Z,9.78
2023-04-10T09:41:35.964Z,10.00
2023-04-10T09:46:28.228Z,10.17
2023-04-10T09:51:23.238Z,10.31
2023-04-10T09:56:07.816Z,10.46
2023-04-10T10:00:26.464Z,10.65
2023-04-10T10:05:13.171Z,11.03
2023-04-10T10:44:49.276Z,13.98
2023-04-10T10:50:04.103Z,14.19
2023-04-10T10:55:29.705Z,14.30
2023-04-10T11:00:23.386Z,14.34
2023-04-10T11:05:46.009Z,14.39
2023-04-10T11:10:51.909Z,14.59
2023-04-10T11:15:43.292Z,14.63
2023-04-10T11:21:04.639Z,14.69
2023-04-10T11:26:11.005Z,14.59
2023-04-10T11:36:55.679Z,14.29
2023-04-10T11:42:33.292Z,15.01
2023-04-10T11:47:56.896Z,15.38
2023-04-10T11:53:02.024Z,15.35
2023-04-10T12:02:47.585Z,15.32
2023-04-10T12:13:18.853Z,15.06
2023-04-10T12:18:26.266Z,14.77
2023-04-10T12:23:41.399Z,14.56
2023-04-10T12:29:10.741Z,14.68
2023-04-10T12:34:14.606Z,14.74
2023-04-10T12:50:16.475Z,14.55
2023-04-10T12:55:44.703Z,14.40
2023-04-10T13:06:41.186Z,14.87
2023-04-10T13:17:42.033Z,15.46
2023-04-10T13:28:10.043Z,14.93
2023-04-10T13:32:54.326Z,14.81
2023-04-10T13:38:11.741Z,14.80
2023-04-10T14:00:18.638Z,13.96
2023-04-10T14:22:17.882Z,12.78
2023-04-10T14:27:43.690Z,13.00
2023-04-10T14:32:46.716Z,13.26
2023-04-10T14:37:53.458Z,13.55
2023-04-10T14:42:47.569Z,13.79
2023-04-10T14:47:25.616Z,13.93
2023-04-10T14:56:57.746Z,13.86
2023-04-10T15:28:51.995Z,13.14
2023-04-10T15:49:59.194Z,12.92
2023-04-10T16:00:11.080Z,12.74
2023-04-10T16:10:49.403Z,12.37
2023-04-10T16:15:22.266Z,12.18
2023-04-10T16:35:19.785Z,11.30
2023-04-10T16:39:42.274Z,11.21
2023-04-10T16:44:19.824Z,11.11
2023-04-10T16:49:12.553Z,10.94
2023-04-10T16:59:00.676Z,10.55
2023-04-10T17:03:23.386Z,10.35
2023-04-10T17:13:40.107Z,9.85
2023-04-10T17:28:34.206Z,9.69
2023-04-10T17:33:09.913Z,9.62
2023-04-10T17:37:39.610Z,9.48
2023-04-10T17:42:15.829Z,9.37
2023-04-10T17:57:19.282Z,9.07
2023-04-10T18:01:48.841Z,9.00
2023-04-10T18:06:37.585Z,8.99
2023-04-10T18:10:46.981Z,9.00
2023-04-10T18:15:11.291Z,9.03
2023-04-10T18:19:46.112Z,9.10
2023-04-10T18:24:25.427Z,9.28
2023-04-10T18:35:04.606Z,9.54
2023-04-10T19:07:47.247Z,8.95
2023-04-10T19:12:20.319Z,8.98
2023-04-10T19:27:40.299Z,8.92
2023-04-10T19:32:05.358Z,8.77
2023-04-10T19:36:57.618Z,8.62
2023-04-10T19:41:24.166Z,8.45
2023-04-10T19:45:59.811Z,8.38
2023-04-10T19:50:34.920Z,8.33
2023-04-10T19:55:16.937Z,8.29
2023-04-10T19:59:55.934Z,8.18
2023-04-10T20:04:30.174Z,8.17
2023-04-10T20:09:11.532Z,8.13
2023-04-10T20:14:14.822Z,8.06
2023-04-10T20:18:48.776Z,7.95
2023-04-10T20:23:31.444Z,7.82
2023-04-10T20:27:54.864Z,7.67
2023-04-10T20:37:51.325Z,7.39
2023-04-10T20:47:59.255Z,7.40
2023-04-10T21:08:53.409Z,6.67
2023-04-10T21:14:08.527Z,6.60
2023-04-10T21:18:46.144Z,6.59
2023-04-10T21:39:28.653Z,6.08
2023-04-10T21:43:51.928Z,6.07
2023-04-10T21:53:19.589Z,6.04
2023-04-10T21:57:49.271Z,6.00
2023-04-10T22:02:25.587Z,5.91
2023-04-10T22:06:51.963Z,5.89
2023-04-10T22:11:57.371Z,5.89
2023-04-10T22:16:07.101Z,5.84
2023-04-10T22:25:57.211Z,5.87
2023-04-10T22:30:31.201Z,5.78
2023-04-10T22:35:28.301Z,5.62
2023-04-10T22:39:53.484Z,5.56
2023-04-10T22:54:28.854Z,5.62
2023-04-10T22:59:02.904Z,5.66
2023-04-10T23:03:37.205Z,5.69
2023-04-10T23:08:07.752Z,5.59
2023-04-10T23:12:50.124Z,5.42
2023-04-10T23:18:04.904Z,5.41
2023-04-10T23:29:01.659Z,5.62
2023-04-10T23:34:29.786Z,5.62
2023-04-10T23:44:07.988Z,5.56
2023-04-10T23:48:43.587Z,5.58
2023-04-10T23:54:03.545Z,5.52
